Time;durP1;ratioP1;P1;durP2;ratioP2;P2;SDS_P1;SDS_P2;PMS_P1;PMS_P2;Temp;Humidity;BMP_temperature;BMP_pressure;BME280_temperature;BME280_humidity;BME280_pressure;Samples;Min_cycle;Max_cycle;Signal;HPM_P1;HPM_P2
2023/05/10 00:02:44;;;;;;;6.93;5.70;;;7.50;1.00;;;;;;10218512;23;20187;-66
2023/05/10 00:06:45;;;;;;;7.83;6.37;;;7.40;1.00;;;;;;10217961;23;20189;-67
2023/05/10 00:10:46;;;;;;;9.37;6.10;;;7.30;1.00;;;;;;10221921;23;20190;-66
2023/05/10 00:14:47;;;;;;;8.47;5.57;;;7.30;1.00;;;;;;10222978;23;20150;-66
2023/05/10 00:18:48;;;;;;;7.17;5.67;;;7.30;1.00;;;;;;10248139;23;20158;-70
2023/05/10 00:22:49;;;;;;;12.87;6.60;;;7.20;1.00;;;;;;10222443;23;20186;-65
2023/05/10 00:26:50;;;;;;;7.93;5.97;;;7.10;1.00;;;;;;10223761;23;20154;-71
2023/05/10 00:30:51;;;;;;;9.10;6.47;;;7.10;1.00;;;;;;10221562;23;20177;-70
2023/05/10 00:34:55;;;;;;;8.67;6.33;;;6.90;1.00;;;;;;10222368;23;20166;-64
2023/05/10 00:38:56;;;;;;;8.83;6.70;;;6.90;31.30;;;;;;10244268;23;20169;-66
2023/05/10 00:42:58;;;;;;;8.50;6.50;;;6.80;58.40;;;;;;10220954;23;20166;-69
2023/05/10 00:46:59;;;;;;;8.20;6.40;;;6.80;93.90;;;;;;10245841;23;20166;-64
2023/05/10 00:51:02;;;;;;;7.47;6.43;;;6.70;99.90;;;;;;10222165;23;20162;-65
2023/05/10 00:55:04;;;;;;;9.13;6.57;;;6.70;99.90;;;;;;10222491;23;20162;-68
2023/05/10 00:59:08;;;;;;;11.00;7.00;;;6.70;99.90;;;;;;10246567;23;20241;-69
2023/05/10 01:03:11;;;;;;;7.70;6.33;;;6.70;99.90;;;;;;10220201;23;20187;-67
2023/05/10 01:07:12;;;;;;;9.53;6.53;;;6.60;99.90;;;;;;10222946;23;20223;-67
2023/05/10 01:11:13;;;;;;;8.20;6.43;;;6.60;99.90;;;;;;10220800;23;20167;-66
2023/05/10 01:15:16;;;;;;;9.50;5.67;;;6.50;99.90;;;;;;10221530;23;20268;-68
2023/05/10 01:19:27;;;;;;;11.17;7.13;;;6.50;99.90;;;;;;10221305;23;20277;-68
2023/05/10 01:23:36;;;;;;;9.67;6.60;;;6.50;99.90;;;;;;10220659;23;20150;-67
2023/05/10 01:28:11;;;;;;;9.93;6.70;;;6.40;99.90;;;;;;10219360;23;20169;-67
2023/05/10 01:32:19;;;;;;;11.07;7.60;;;6.40;99.90;;;;;;10220404;23;20178;-65
2023/05/10 01:36:28;;;;;;;8.87;6.97;;;6.40;99.90;;;;;;10219093;23;20158;-67
2023/05/10 01:40:55;;;;;;;7.37;6.17;;;6.40;99.90;;;;;;10245763;23;20186;-68
2023/05/10 01:45:14;;;;;;;8.87;6.23;;;6.30;99.90;;;;;;10217690;23;20186;-68
2023/05/10 01:49:25;;;;;;;9.73;7.00;;;6.20;99.90;;;;;;10222764;23;20149;-65
2023/05/10 01:53:27;;;;;;;8.87;6.83;;;6.20;99.90;;;;;;10246740;23;20151;-64
2023/05/10 01:57:35;;;;;;;9.00;6.57;;;6.10;99.90;;;;;;10218149;23;20163;-66
2023/05/10 02:01:46;;;;;;;8.00;6.60;;;6.10;99.90;;;;;;10220961;23;20174;-66
2023/05/10 02:05:53;;;;;;;10.27;7.60;;;6.00;99.90;;;;;;10219109;23;20159;-68
2023/05/10 02:09:58;;;;;;;9.17;6.20;;;6.00;1.00;;;;;;10244787;23;20179;-64
2023/05/10 02:14:00;;;;;;;8.33;6.60;;;6.00;1.00;;;;;;10221341;23;20162;-65
2023/05/10 02:18:03;;;;;;;8.67;7.13;;;6.00;1.00;;;;;;10244279;23;20186;-68
2023/05/10 02:22:06;;;;;;;11.50;7.43;;;6.00;99.90;;;;;;10219106;23;20190;-64
2023/05/10 02:26:08;;;;;;;10.13;7.07;;;6.00;99.90;;;;;;10219082;23;20217;-66
2023/05/10 02:30:10;;;;;;;11.23;7.73;;;6.00;99.90;;;;;;10221908;23;20205;-64
2023/05/10 02:34:12;;;;;;;8.30;6.20;;;6.10;99.90;;;;;;10221679;23;20165;-64
2023/05/10 02:38:15;;;;;;;9.87;6.37;;;6.00;99.90;;;;;;10222336;23;20182;-69
2023/05/10 02:42:19;;;;;;;10.00;7.07;;;6.00;99.90;;;;;;10220300;23;20186;-67
2023/05/10 02:46:20;;;;;;;8.53;6.50;;;6.00;99.90;;;;;;10217348;23;20177;-66
2023/05/10 02:50:30;;;;;;;9.73;6.80;;;6.00;99.90;;;;;;10220736;23;20163;-66
2023/05/10 02:54:54;;;;;;;9.00;6.30;;;6.00;99.90;;;;;;10219248;23;20166;-68
2023/05/10 02:58:55;;;;;;;11.87;6.53;;;5.90;1.00;;;;;;10243422;23;20154;-69
2023/05/10 03:02:56;;;;;;;9.57;6.90;;;6.00;1.00;;;;;;10216442;23;20178;-66
2023/05/10 03:06:57;;;;;;;10.60;7.80;;;6.00;99.90;;;;;;10218114;23;20253;-68
2023/05/10 03:11:17;;;;;;;15.80;9.60;;;6.10;99.90;;;;;;10243062;23;20174;-66
2023/05/10 03:15:46;;;;;;;11.40;9.60;;;6.10;99.90;;;;;;10218298;23;20174;-66
2023/05/10 03:19:54;;;;;;;12.63;10.27;;;6.10;99.90;;;;;;10216631;23;20213;-67
2023/05/10 03:24:05;;;;;;;18.73;9.70;;;6.20;99.90;;;;;;10219819;23;20230;-68
2023/05/10 03:28:07;;;;;;;25.03;13.60;;;6.20;99.90;;;;;;10216799;23;20170;-66
2023/05/10 03:32:11;;;;;;;9.70;7.73;;;6.20;99.90;;;;;;10218171;23;20210;-67
2023/05/10 03:36:11;;;;;;;13.23;8.07;;;6.30;99.90;;;;;;10218422;23;20158;-69
2023/05/10 03:40:12;;;;;;;12.73;7.47;;;6.40;99.90;;;;;;10241321;23;20241;-66
2023/05/10 03:44:14;;;;;;;14.33;8.40;;;6.40;99.90;;;;;;10220230;23;20158;-66
2023/05/10 03:48:14;;;;;;;13.67;9.47;;;6.50;99.90;;;;;;10219637;23;20167;-66
2023/05/10 03:52:15;;;;;;;10.37;6.53;;;6.60;99.90;;;;;;10246378;23;20221;-70
2023/05/10 03:56:16;;;;;;;18.67;10.20;;;6.90;45.40;;;;;;10219443;23;20162;-66
2023/05/10 04:00:17;;;;;;;11.77;7.77;;;7.80;1.00;;;;;;10246129;23;20190;-69
2023/05/10 04:04:20;;;;;;;14.57;7.90;;;8.70;99.90;;;;;;10219977;23;20174;-67
2023/05/10 04:08:21;;;;;;;16.20;8.70;;;9.40;99.90;;;;;;10220017;23;20178;-67
2023/05/10 04:12:22;;;;;;;9.33;6.70;;;10.00;99.90;;;;;;10222195;23;20165;-65
2023/05/10 04:16:24;;;;;;;9.73;7.90;;;10.60;99.90;;;;;;10220874;23;20162;-65
2023/05/10 04:20:25;;;;;;;12.03;8.73;;;11.00;64.80;;;;;;10220017;23;20194;-69
2023/05/10 04:24:30;;;;;;;14.13;9.77;;;11.30;30.20;;;;;;10220944;23;20166;-70
2023/05/10 04:28:31;;;;;;;7.90;5.77;;;11.40;21.00;;;;;;10220213;23;20161;-67
2023/05/10 04:32:32;;;;;;;11.17;6.20;;;11.60;13.60;;;;;;10220084;23;20169;-68
2023/05/10 04:36:35;;;;;;;5.87;5.13;;;11.70;9.90;;;;;;10219675;23;20205;-68
2023/05/10 04:40:39;;;;;;;6.63;5.07;;;11.90;1.00;;;;;;10221374;23;20213;-67
2023/05/10 04:44:40;;;;;;;9.20;5.03;;;12.10;1.00;;;;;;10220807;23;20238;-66
2023/05/10 04:48:42;;;;;;;7.53;5.73;;;12.20;1.00;;;;;;10221938;23;20162;-67
2023/05/10 04:52:44;;;;;;;8.37;7.33;;;12.30;1.00;;;;;;10244485;23;20229;-68
2023/05/10 04:56:45;;;;;;;7.57;5.80;;;12.30;1.00;;;;;;10218844;23;20221;-67
2023/05/10 05:00:46;;;;;;;6.53;5.27;;;12.30;1.00;;;;;;10221125;23;20182;-68
2023/05/10 05:04:47;;;;;;;7.10;5.60;;;11.70;1.00;;;;;;10219904;23;20179;-69
2023/05/10 05:08:49;;;;;;;6.40;4.77;;;11.40;2.50;;;;;;10245567;23;20177;-71
2023/05/10 05:12:50;;;;;;;9.43;5.67;;;11.10;15.60;;;;;;10219219;23;20197;-67
2023/05/10 05:16:55;;;;;;;9.07;5.87;;;11.00;34.50;;;;;;10222544;23;20169;-67
2023/05/10 05:20:56;;;;;;;7.37;4.07;;;10.90;54.20;;;;;;10219811;23;20178;-70
2023/05/10 05:25:02;;;;;;;7.03;4.90;;;10.90;68.90;;;;;;10221019;23;20159;-69
2023/05/10 05:29:03;;;;;;;6.97;4.50;;;11.00;51.10;;;;;;10218479;23;20159;-67
2023/05/10 05:33:04;;;;;;;5.67;4.70;;;11.00;48.30;;;;;;10244219;23;20176;-69
2023/05/10 05:37:05;;;;;;;6.67;4.50;;;11.00;61.40;;;;;;10219740;23;20260;-69
2023/05/10 05:41:08;;;;;;;7.27;5.60;;;11.00;72.20;;;;;;10221145;23;20184;-69
2023/05/10 05:45:12;;;;;;;6.10;4.57;;;11.00;65.20;;;;;;10219372;23;20160;-67
2023/05/10 05:49:13;;;;;;;6.60;4.37;;;11.10;76.70;;;;;;10221467;23;20162;-70
2023/05/10 05:53:14;;;;;;;8.97;5.20;;;11.20;63.00;;;;;;10217308;23;20168;-66
2023/05/10 05:57:15;;;;;;;9.70;5.30;;;11.40;52.20;;;;;;10220848;23;20154;-66
2023/05/10 06:01:17;;;;;;;6.53;5.10;;;11.60;44.80;;;;;;10243343;23;20213;-66
2023/05/10 06:05:18;;;;;;;7.50;4.87;;;11.70;35.00;;;;;;10220602;23;20273;-67
2023/05/10 06:09:19;;;;;;;7.10;4.90;;;11.90;34.00;;;;;;10218695;23;20232;-72
2023/05/10 06:13:20;;;;;;;6.37;4.00;;;12.00;22.90;;;;;;10243659;23;20226;-67
2023/05/10 06:17:21;;;;;;;4.80;3.83;;;12.10;29.70;;;;;;10218715;23;20170;-68
2023/05/10 06:21:22;;;;;;;4.90;4.10;;;12.30;25.40;;;;;;10220729;23;20182;-70
2023/05/10 06:25:23;;;;;;;5.07;4.20;;;12.40;11.20;;;;;;10221275;23;20153;-66
2023/05/10 06:29:24;;;;;;;4.93;3.47;;;12.60;17.80;;;;;;10216871;23;20189;-69
2023/05/10 06:33:25;;;;;;;6.30;4.10;;;12.80;13.50;;;;;;10217692;23;20162;-66
2023/05/10 06:37:26;;;;;;;6.97;4.17;;;12.90;1.00;;;;;;10243482;23;20273;-69
2023/05/10 06:41:30;;;;;;;4.37;3.43;;;13.20;1.00;;;;;;10217913;23;20197;-69
2023/05/10 06:45:31;;;;;;;5.40;3.80;;;13.40;1.00;;;;;;10216909;23;20167;-66
2023/05/10 06:49:32;;;;;;;5.47;3.90;;;13.60;1.00;;;;;;10242813;23;20249;-68
2023/05/10 06:53:33;;;;;;;5.60;3.33;;;13.80;1.00;;;;;;10216085;23;20174;-67
2023/05/10 06:57:34;;;;;;;5.03;3.67;;;14.00;1.00;;;;;;10219469;23;20193;-69
2023/05/10 07:01:38;;;;;;;11.10;8.03;;;14.20;1.00;;;;;;10216897;23;20225;-67
2023/05/10 07:05:40;;;;;;;5.00;3.93;;;14.40;1.00;;;;;;10218934;23;20190;-69
2023/05/10 07:09:41;;;;;;;6.70;4.10;;;14.50;1.00;;;;;;10217821;23;20261;-68
2023/05/10 07:13:44;;;;;;;5.07;3.50;;;14.60;1.00;;;;;;10242784;23;20314;-66
2023/05/10 07:17:45;;;;;;;6.23;4.10;;;14.80;1.00;;;;;;10217593;23;20163;-66
2023/05/10 07:21:49;;;;;;;8.23;4.20;;;15.00;1.00;;;;;;10240886;23;20186;-68
2023/05/10 07:25:52;;;;;;;6.80;3.70;;;15.10;1.00;;;;;;10243255;23;20158;-67
2023/05/10 07:29:56;;;;;;;6.33;4.23;;;15.30;1.00;;;;;;10218084;23;20158;-65
2023/05/10 07:33:57;;;;;;;5.20;3.50;;;15.50;1.00;;;;;;10219065;23;20214;-65
2023/05/10 07:38:01;;;;;;;4.63;3.00;;;15.60;1.00;;;;;;10216318;23;20229;-68
2023/05/10 07:42:05;;;;;;;3.27;2.53;;;15.80;1.00;;;;;;10216580;23;20194;-67
2023/05/10 07:46:07;;;;;;;5.73;2.60;;;15.90;1.00;;;;;;10218233;23;20170;-66
2023/05/10 07:50:08;;;;;;;4.27;2.53;;;15.90;1.00;;;;;;10214542;23;20166;-68
2023/05/10 07:54:09;;;;;;;4.17;2.30;;;16.00;1.00;;;;;;10218792;23;20154;-67
2023/05/10 07:58:13;;;;;;;4.40;2.80;;;16.10;1.00;;;;;;10217131;23;20162;-69
2023/05/10 08:02:17;;;;;;;4.33;2.60;;;16.40;1.00;;;;;;10216692;23;20253;-70
2023/05/10 08:06:19;;;;;;;3.57;2.40;;;16.40;1.00;;;;;;10218684;23;20173;-64
2023/05/10 08:10:20;;;;;;;4.33;2.40;;;16.50;1.00;;;;;;10217020;23;20163;-65
2023/05/10 08:14:21;;;;;;;7.33;2.40;;;16.70;1.00;;;;;;10217656;23;20242;-70
2023/05/10 08:18:22;;;;;;;2.90;2.20;;;16.80;1.00;;;;;;10215935;23;20166;-64
2023/05/10 08:22:23;;;;;;;3.73;2.30;;;16.90;1.00;;;;;;10218288;23;20190;-71
2023/05/10 08:26:24;;;;;;;3.03;2.53;;;17.00;1.00;;;;;;10217252;23;20166;-67
2023/05/10 08:30:25;;;;;;;4.10;2.53;;;17.20;1.00;;;;;;10220472;23;20166;-65
2023/05/10 08:34:27;;;;;;;3.43;2.40;;;17.30;1.00;;;;;;10219367;23;20240;-66
2023/05/10 08:38:28;;;;;;;6.00;2.90;;;17.30;1.00;;;;;;10222003;23;20209;-69
2023/05/10 08:42:31;;;;;;;4.83;2.90;;;17.50;1.00;;;;;;10221127;23;20185;-67
2023/05/10 08:46:36;;;;;;;4.33;2.97;;;17.50;1.00;;;;;;10218031;23;20198;-71
2023/05/10 08:50:48;;;;;;;4.17;2.80;;;17.40;1.00;;;;;;10220177;23;20252;-66
2023/05/10 08:54:49;;;;;;;6.57;3.27;;;17.50;1.00;;;;;;10218943;23;20226;-68
2023/05/10 08:58:51;;;;;;;7.23;3.63;;;17.60;1.00;;;;;;10219515;23;20170;-68
2023/05/10 09:02:57;;;;;;;5.57;3.10;;;17.70;1.00;;;;;;10218930;23;20233;-69
2023/05/10 09:07:01;;;;;;;4.90;3.23;;;17.80;1.00;;;;;;10218923;23;20234;-66
2023/05/10 09:11:02;;;;;;;5.47;3.23;;;17.90;1.00;;;;;;10246507;23;20163;-71
2023/05/10 09:15:05;;;;;;;5.93;3.00;;;17.90;1.00;;;;;;10221947;23;20158;-66
2023/05/10 09:19:07;;;;;;;6.90;3.17;;;17.90;1.00;;;;;;10219813;23;20167;-68
2023/05/10 09:23:09;;;;;;;3.80;2.70;;;17.90;1.00;;;;;;10218471;23;20314;-70
2023/05/10 09:27:10;;;;;;;6.63;2.90;;;18.00;1.00;;;;;;10220008;23;20159;-68
2023/05/10 09:31:11;;;;;;;6.27;2.70;;;18.10;1.00;;;;;;10218302;23;20168;-66
2023/05/10 09:35:37;;;;;;;3.10;2.50;;;18.30;1.00;;;;;;10221079;23;20167;-66
2023/05/10 09:39:41;;;;;;;4.37;2.90;;;18.40;1.00;;;;;;10216703;23;20190;-66
2023/05/10 09:43:45;;;;;;;5.37;4.13;;;18.50;1.00;;;;;;10219487;23;20159;-65
2023/05/10 09:47:46;;;;;;;4.03;2.70;;;18.70;1.00;;;;;;10220865;23;20210;-69
2023/05/10 09:52:07;;;;;;;4.47;2.40;;;18.80;1.00;;;;;;10215775;23;20186;-66
2023/05/10 09:56:08;;;;;;;4.10;2.07;;;18.90;1.00;;;;;;10218255;23;20159;-70
2023/05/10 10:00:20;;;;;;;4.70;2.00;;;19.00;1.00;;;;;;10221591;23;20178;-66
2023/05/10 10:04:21;;;;;;;3.43;2.27;;;19.10;1.00;;;;;;10242122;23;20182;-69
2023/05/10 10:08:22;;;;;;;2.77;2.00;;;19.20;1.00;;;;;;10218207;23;20178;-70
2023/05/10 10:12:24;;;;;;;3.50;1.93;;;19.30;1.00;;;;;;10219766;23;20229;-67
2023/05/10 10:16:26;;;;;;;4.17;1.93;;;19.50;1.00;;;;;;10219386;23;20155;-70
2023/05/10 10:20:28;;;;;;;4.50;2.10;;;19.70;1.00;;;;;;10218777;23;20187;-69
2023/05/10 10:24:29;;;;;;;3.67;2.10;;;19.80;1.00;;;;;;10217637;23;20166;-71
2023/05/10 10:28:39;;;;;;;3.40;2.10;;;20.10;1.00;;;;;;10219350;23;20186;-71
2023/05/10 10:33:11;;;;;;;6.63;2.70;;;20.10;1.00;;;;;;10218992;23;20234;-66
2023/05/10 10:37:12;;;;;;;4.47;1.63;;;20.20;1.00;;;;;;10219078;23;20270;-68
2023/05/10 10:41:36;;;;;;;3.70;1.43;;;20.30;1.00;;;;;;10219977;23;20190;-65
2023/05/10 10:45:39;;;;;;;6.10;1.80;;;20.30;1.00;;;;;;10218200;23;20212;-66
2023/05/10 10:49:40;;;;;;;2.03;1.33;;;20.50;1.00;;;;;;10219301;23;20162;-69
2023/05/10 10:53:42;;;;;;;2.03;1.30;;;20.90;1.00;;;;;;10217671;23;20166;-66
2023/05/10 10:58:04;;;;;;;2.70;1.57;;;21.20;1.00;;;;;;10222423;23;20162;-68
2023/05/10 11:02:06;;;;;;;3.57;1.20;;;21.40;1.00;;;;;;10220762;23;20202;-65
2023/05/10 11:06:28;;;;;;;1.90;1.50;;;21.20;1.00;;;;;;10218515;23;20162;-66
2023/05/10 11:10:29;;;;;;;4.00;1.50;;;21.10;1.00;;;;;;10219171;23;20167;-68
2023/05/10 11:14:35;;;;;;;3.30;1.60;;;21.00;1.00;;;;;;10216884;23;20163;-68
2023/05/10 11:18:40;;;;;;;15.10;2.40;;;21.00;1.00;;;;;;10219685;23;20163;-66
2023/05/10 11:22:51;;;;;;;2.93;1.30;;;21.00;1.00;;;;;;10217437;23;20190;-65
2023/05/10 11:26:57;;;;;;;3.40;1.90;;;21.10;1.00;;;;;;10218191;23;20163;-66
2023/05/10 11:30:58;;;;;;;3.23;1.30;;;21.00;1.00;;;;;;10217459;23;20247;-64
2023/05/10 11:35:00;;;;;;;3.13;1.67;;;20.90;1.00;;;;;;10217311;23;20252;-65
2023/05/10 11:39:04;;;;;;;2.60;1.70;;;21.20;1.00;;;;;;10218938;23;20265;-67
2023/05/10 11:43:05;;;;;;;2.03;1.60;;;21.40;1.00;;;;;;10243364;23;20193;-67
2023/05/10 11:47:09;;;;;;;2.40;1.80;;;21.70;1.00;;;;;;10243793;23;20265;-65
2023/05/10 11:51:14;;;;;;;2.10;1.60;;;21.90;1.00;;;;;;10218499;23;20246;-68
2023/05/10 11:55:15;;;;;;;4.33;1.70;;;22.00;1.00;;;;;;10219046;23;20205;-69
2023/05/10 11:59:16;;;;;;;2.43;1.27;;;22.10;1.00;;;;;;10217229;23;20162;-69
2023/05/10 12:03:17;;;;;;;1.90;1.57;;;21.80;1.00;;;;;;10217526;23;20189;-67
2023/05/10 12:07:19;;;;;;;2.03;1.60;;;21.30;1.00;;;;;;10221767;23;20289;-67
2023/05/10 12:11:24;;;;;;;3.47;1.47;;;21.40;1.00;;;;;;10223467;23;20158;-68
2023/05/10 12:15:27;;;;;;;5.67;1.57;;;21.80;1.00;;;;;;10223012;23;20155;-67
2023/05/10 12:19:28;;;;;;;2.10;1.60;;;21.80;1.00;;;;;;10219796;23;20171;-67
2023/05/10 12:23:29;;;;;;;1.60;1.40;;;21.70;1.00;;;;;;10218923;23;20234;-67
2023/05/10 12:27:33;;;;;;;3.87;1.80;;;21.50;1.00;;;;;;10221766;23;20262;-64
2023/05/10 12:32:02;;;;;;;2.00;1.33;;;21.60;1.00;;;;;;10220201;23;20238;-69
2023/05/10 12:36:04;;;;;;;2.17;1.30;;;21.80;1.00;;;;;;10197226;23;20159;-67
2023/05/10 12:40:13;;;;;;;4.57;1.60;;;22.20;1.00;;;;;;10221557;23;20294;-68
2023/05/10 12:44:14;;;;;;;3.27;1.70;;;22.60;1.00;;;;;;10221714;23;20185;-66
2023/05/10 12:48:15;;;;;;;3.57;1.50;;;22.80;1.00;;;;;;10221601;23;20163;-65
2023/05/10 12:52:16;;;;;;;4.40;1.30;;;22.90;1.00;;;;;;10221240;23;20163;-67
2023/05/10 12:56:17;;;;;;;2.73;1.17;;;22.80;1.00;;;;;;10222521;23;20161;-69
2023/05/10 13:00:22;;;;;;;3.80;1.30;;;22.60;1.00;;;;;;10221764;23;20174;-66
2023/05/10 13:04:23;;;;;;;3.70;1.20;;;22.50;1.00;;;;;;10217458;23;20187;-68
2023/05/10 13:08:24;;;;;;;1.80;1.40;;;22.50;1.00;;;;;;10223160;23;20170;-67
2023/05/10 13:12:25;;;;;;;3.50;1.50;;;22.70;1.00;;;;;;10219305;23;20171;-67
2023/05/10 13:16:26;;;;;;;2.77;1.60;;;22.90;1.00;;;;;;10221501;23;20158;-67
2023/05/10 13:20:30;;;;;;;2.57;1.10;;;22.80;1.00;;;;;;10219766;23;20182;-70
2023/05/10 13:24:31;;;;;;;2.33;1.03;;;22.70;1.00;;;;;;10221570;23;20202;-67
2023/05/10 13:28:32;;;;;;;2.73;1.30;;;22.80;1.00;;;;;;10221697;23;20161;-68
2023/05/10 13:32:36;;;;;;;1.80;1.30;;;22.70;1.00;;;;;;10245601;23;20187;-66
2023/05/10 13:36:38;;;;;;;3.07;1.57;;;22.50;1.00;;;;;;10219725;23;20166;-67
2023/05/10 13:40:39;;;;;;;3.30;1.60;;;22.70;1.00;;;;;;10244067;23;20194;-67
2023/05/10 13:44:40;;;;;;;5.73;1.40;;;22.90;1.00;;;;;;10220019;23;20158;-67
2023/05/10 13:48:47;;;;;;;4.33;1.80;;;23.00;1.00;;;;;;10245414;23;20169;-66
2023/05/10 13:52:57;;;;;;;2.97;1.60;;;22.80;1.00;;;;;;10218631;23;20170;-66
2023/05/10 13:56:58;;;;;;;4.00;1.33;;;22.80;1.00;;;;;;10221190;23;20194;-68
2023/05/10 14:01:08;;;;;;;2.10;1.30;;;22.70;1.00;;;;;;10219776;23;20187;-68
2023/05/10 14:05:09;;;;;;;5.97;1.30;;;22.70;1.00;;;;;;10219495;23;20192;-66
2023/05/10 14:09:10;;;;;;;2.07;1.17;;;22.70;1.00;;;;;;10218502;23;20174;-65
2023/05/10 14:13:13;;;;;;;5.60;1.67;;;22.70;1.00;;;;;;10219208;23;20185;-68
2023/05/10 14:17:14;;;;;;;1.20;1.00;;;22.60;1.00;;;;;;10218830;23;20163;-66
2023/05/10 14:21:15;;;;;;;1.97;1.17;;;22.50;1.00;;;;;;10219861;23;20190;-65
2023/05/10 14:25:16;;;;;;;2.27;1.37;;;22.50;1.00;;;;;;10219227;23;20169;-66
2023/05/10 14:29:17;;;;;;;3.67;1.20;;;22.40;1.00;;;;;;10222784;23;20161;-67
2023/05/10 14:33:19;;;;;;;2.93;1.13;;;22.20;1.00;;;;;;10221475;23;20154;-66
2023/05/10 14:37:19;;;;;;;2.77;1.47;;;22.10;1.00;;;;;;10244185;23;20150;-68
2023/05/10 14:41:20;;;;;;;1.53;1.17;;;22.00;1.00;;;;;;10244460;23;20191;-66
2023/05/10 14:45:22;;;;;;;7.03;1.37;;;21.80;1.00;;;;;;10220169;23;20154;-68
2023/05/10 14:49:25;;;;;;;4.87;1.40;;;21.70;1.00;;;;;;10220202;23;20162;-68
2023/05/10 14:53:26;;;;;;;3.43;1.43;;;21.70;1.00;;;;;;10218227;23;20158;-70
2023/05/10 14:57:29;;;;;;;2.57;1.63;;;21.50;1.00;;;;;;10222175;23;20226;-66
2023/05/10 15:01:32;;;;;;;1.60;1.10;;;21.40;1.00;;;;;;10217458;23;20194;-68
2023/05/10 15:05:33;;;;;;;5.87;1.40;;;21.50;1.00;;;;;;10220079;23;20186;-67
2023/05/10 15:09:34;;;;;;;2.53;1.00;;;21.50;1.00;;;;;;10220389;23;20225;-67
2023/05/10 15:13:38;;;;;;;1.00;0.87;;;21.50;1.00;;;;;;10220003;23;20155;-68
2023/05/10 15:17:39;;;;;;;1.60;1.10;;;21.70;1.00;;;;;;10221674;23;20150;-70
2023/05/10 15:21:42;;;;;;;7.00;1.53;;;21.60;1.00;;;;;;10217007;23;20297;-68
2023/05/10 15:25:43;;;;;;;3.33;1.00;;;21.40;1.00;;;;;;10244611;23;20194;-68
2023/05/10 15:29:44;;;;;;;2.13;1.20;;;21.20;1.00;;;;;;10193205;23;20173;-68
2023/05/10 15:33:48;;;;;;;4.83;1.40;;;21.00;1.00;;;;;;10243377;23;20162;-66
2023/05/10 15:37:50;;;;;;;2.30;1.20;;;21.00;1.00;;;;;;10217688;23;20162;-68
2023/05/10 15:42:01;;;;;;;5.27;1.50;;;20.90;1.00;;;;;;10222516;23;20186;-66
2023/05/10 15:46:05;;;;;;;4.60;1.70;;;20.80;1.00;;;;;;10222399;23;20171;-68
2023/05/10 15:50:07;;;;;;;3.73;1.47;;;20.80;1.00;;;;;;10222157;23;20189;-67
2023/05/10 15:54:17;;;;;;;4.87;1.40;;;20.80;1.00;;;;;;10222524;23;20574;-68
2023/05/10 15:58:21;;;;;;;1.83;1.30;;;20.90;1.00;;;;;;10223299;23;20177;-68
2023/05/10 16:02:25;;;;;;;4.87;1.50;;;20.80;1.00;;;;;;10221947;23;20194;-65
2023/05/10 16:06:26;;;;;;;2.53;1.30;;;20.80;1.00;;;;;;10223310;23;20166;-68
2023/05/10 16:10:30;;;;;;;1.30;1.00;;;20.70;1.00;;;;;;10223109;23;20238;-67
2023/05/10 16:14:31;;;;;;;4.73;1.53;;;20.60;1.00;;;;;;10222156;23;20258;-67
2023/05/10 16:19:02;;;;;;;2.13;1.60;;;20.50;1.00;;;;;;8452054;27;20328;-67
2023/05/10 16:23:05;;;;;;;2.17;1.43;;;20.50;1.00;;;;;;8433246;28;20332;-67
2023/05/10 16:27:11;;;;;;;3.33;1.50;;;20.40;1.00;;;;;;8436269;28;20188;-67
2023/05/10 16:31:17;;;;;;;2.17;1.30;;;20.40;1.00;;;;;;8429397;28;20239;-69
2023/05/10 16:35:24;;;;;;;2.10;1.30;;;20.30;1.00;;;;;;8435554;28;20251;-67
2023/05/10 16:39:25;;;;;;;2.33;1.70;;;20.30;1.00;;;;;;8447248;28;20231;-67
2023/05/10 16:43:26;;;;;;;5.83;1.40;;;20.20;1.00;;;;;;8436237;28;20194;-68
2023/05/10 16:47:27;;;;;;;2.63;1.53;;;20.20;1.00;;;;;;8437906;28;20275;-68
2023/05/10 16:51:28;;;;;;;2.60;1.60;;;20.10;1.00;;;;;;8429077;28;20261;-67
2023/05/10 16:55:29;;;;;;;4.03;1.50;;;20.00;1.00;;;;;;8435496;28;20277;-65
2023/05/10 16:59:42;;;;;;;2.77;1.23;;;19.90;1.00;;;;;;8432949;28;20187;-65
2023/05/10 17:03:43;;;;;;;5.33;1.93;;;19.90;1.00;;;;;;8417706;28;20231;-66
2023/05/10 17:07:44;;;;;;;5.53;1.40;;;19.80;1.00;;;;;;8399198;28;20193;-67
2023/05/10 17:11:45;;;;;;;3.20;1.80;;;19.70;1.00;;;;;;8400545;28;20194;-70
2023/05/10 17:15:46;;;;;;;4.43;1.73;;;19.60;1.00;;;;;;8402457;28;20212;-67
2023/05/10 17:19:48;;;;;;;5.77;1.63;;;19.50;1.00;;;;;;8404332;28;20282;-67
2023/05/10 17:23:49;;;;;;;1.97;1.50;;;19.50;1.00;;;;;;8399462;28;20223;-70
2023/05/10 17:27:50;;;;;;;1.83;1.47;;;19.80;1.00;;;;;;8393808;28;20196;-68
2023/05/10 17:31:50;;;;;;;3.37;1.50;;;20.40;1.00;;;;;;8378744;28;20284;-67
2023/05/10 17:35:51;;;;;;;3.80;1.50;;;20.90;1.00;;;;;;8375007;28;20207;-67
2023/05/10 17:39:58;;;;;;;2.93;1.33;;;21.20;1.00;;;;;;8379602;28;20223;-67
2023/05/10 17:43:59;;;;;;;3.63;1.60;;;21.60;1.00;;;;;;8374110;28;20191;-66
2023/05/10 17:48:03;;;;;;;1.93;1.67;;;21.70;1.00;;;;;;8395523;28;20181;-67
2023/05/10 17:52:04;;;;;;;2.30;1.60;;;21.50;1.00;;;;;;8371751;28;20204;-66
2023/05/10 17:56:05;;;;;;;4.13;1.93;;;21.20;1.00;;;;;;8376321;28;20215;-67
2023/05/10 18:00:08;;;;;;;2.37;1.30;;;21.00;1.00;;;;;;8372603;28;20215;-68
2023/05/10 18:04:09;;;;;;;2.50;1.60;;;20.60;1.00;;;;;;8377274;28;20274;-67
2023/05/10 18:08:10;;;;;;;2.33;1.70;;;19.70;1.00;;;;;;8374122;28;20272;-66
2023/05/10 18:12:11;;;;;;;3.37;1.93;;;19.00;1.00;;;;;;8375194;28;20246;-69
2023/05/10 18:16:12;;;;;;;2.73;1.90;;;18.30;1.00;;;;;;8376035;28;20247;-68
2023/05/10 18:20:13;;;;;;;2.87;1.60;;;17.70;1.00;;;;;;8373912;28;20186;-68
2023/05/10 18:24:13;;;;;;;4.57;2.37;;;17.30;1.00;;;;;;8377644;28;20219;-69
2023/05/10 18:28:14;;;;;;;2.83;1.90;;;17.00;1.00;;;;;;8375776;28;20197;-68
2023/05/10 18:32:16;;;;;;;5.10;2.30;;;16.60;1.00;;;;;;8377269;28;20193;-68
2023/05/10 18:36:20;;;;;;;5.20;2.00;;;16.30;1.00;;;;;;8377553;28;20201;-67
2023/05/10 18:40:21;;;;;;;3.33;1.80;;;16.00;1.00;;;;;;8373593;28;20226;-68
2023/05/10 18:44:25;;;;;;;3.47;2.00;;;15.80;1.00;;;;;;8376431;28;20375;-68
2023/05/10 18:48:26;;;;;;;4.30;1.97;;;15.50;1.00;;;;;;8374195;28;20186;-68
2023/05/10 18:52:27;;;;;;;1.93;1.73;;;15.20;1.00;;;;;;8375989;28;20275;-68
2023/05/10 18:56:28;;;;;;;2.63;1.83;;;15.00;1.00;;;;;;8373532;28;20212;-68
2023/05/10 19:00:29;;;;;;;2.63;1.97;;;14.80;1.00;;;;;;8373749;28;20242;-65
2023/05/10 19:04:30;;;;;;;2.50;1.87;;;14.60;1.00;;;;;;8377587;28;20276;-66
2023/05/10 19:08:31;;;;;;;4.03;2.30;;;14.40;1.00;;;;;;8374331;28;20184;-66
2023/05/10 19:12:36;;;;;;;3.20;2.30;;;14.20;1.00;;;;;;8373698;28;20220;-66
2023/05/10 19:16:41;;;;;;;4.17;2.47;;;14.00;1.00;;;;;;8371699;28;20217;-66
2023/05/10 19:20:48;;;;;;;2.67;2.30;;;13.80;7.40;;;;;;8374563;28;20192;-67
2023/05/10 19:24:49;;;;;;;4.20;2.40;;;13.70;11.90;;;;;;8366622;28;20181;-68
2023/05/10 19:28:53;;;;;;;2.50;2.17;;;13.60;27.60;;;;;;8376586;28;20188;-71
2023/05/10 19:32:55;;;;;;;2.70;2.30;;;13.40;38.20;;;;;;8371685;28;20189;-66
2023/05/10 19:36:55;;;;;;;5.80;2.33;;;13.30;53.80;;;;;;8374057;28;20211;-67
2023/05/10 19:40:57;;;;;;;3.27;2.20;;;13.20;79.50;;;;;;8371144;28;20201;-65
2023/05/10 19:44:58;;;;;;;3.53;2.40;;;13.00;98.80;;;;;;8375431;28;20231;-68
2023/05/10 19:48:59;;;;;;;3.87;2.17;;;12.80;99.90;;;;;;8372773;28;20263;-67
2023/05/10 19:53:00;;;;;;;2.97;2.40;;;12.60;99.90;;;;;;8372464;28;20211;-68
2023/05/10 19:57:01;;;;;;;4.10;2.30;;;12.40;99.90;;;;;;8367635;28;20216;-67
2023/05/10 20:01:04;;;;;;;3.13;2.43;;;12.20;99.90;;;;;;8375382;28;20184;-69
2023/05/10 20:05:06;;;;;;;3.03;2.73;;;12.00;99.90;;;;;;8372032;28;20199;-67
2023/05/10 20:09:07;;;;;;;3.27;2.77;;;12.00;99.90;;;;;;8390090;28;20184;-69
2023/05/10 20:13:08;;;;;;;3.70;2.40;;;11.90;99.90;;;;;;8372865;28;20180;-69
2023/05/10 20:17:09;;;;;;;2.80;2.50;;;11.80;99.90;;;;;;8371581;28;20306;-67
2023/05/10 20:21:10;;;;;;;2.97;2.47;;;11.70;99.90;;;;;;8376550;28;20187;-67
2023/05/10 20:25:11;;;;;;;2.83;2.57;;;11.50;99.90;;;;;;8374392;28;20180;-68
2023/05/10 20:29:15;;;;;;;3.37;2.60;;;11.30;99.90;;;;;;8374267;28;20199;-67
2023/05/10 20:33:16;;;;;;;4.70;2.60;;;11.20;99.90;;;;;;8373521;28;20212;-67
2023/05/10 20:37:17;;;;;;;3.50;2.60;;;11.00;99.90;;;;;;8373962;28;20218;-67
2023/05/10 20:41:18;;;;;;;3.50;2.60;;;10.90;99.90;;;;;;8371800;28;20209;-67
2023/05/10 20:45:19;;;;;;;3.80;2.87;;;10.70;99.90;;;;;;8371459;28;20192;-67
2023/05/10 20:49:23;;;;;;;3.80;2.57;;;10.60;99.90;;;;;;8372842;28;20246;-67
2023/05/10 20:53:24;;;;;;;4.57;2.77;;;10.50;99.90;;;;;;8370240;28;20189;-67
2023/05/10 20:57:30;;;;;;;3.37;2.70;;;10.30;99.90;;;;;;8372718;28;20260;-67
2023/05/10 21:01:32;;;;;;;3.00;2.70;;;10.20;99.90;;;;;;8371015;28;20308;-66
2023/05/10 21:05:35;;;;;;;3.67;3.07;;;10.10;1.00;;;;;;8386099;28;20218;-66
2023/05/10 21:09:37;;;;;;;3.23;2.60;;;9.90;1.00;;;;;;8375982;28;20185;-68